Time;durP1;ratioP1;P1;durP2;ratioP2;P2;SDS_P1;SDS_P2;PMS_P1;PMS_P2;Temp;Humidity;BMP_temperature;BMP_pressure;BME280_temperature;BME280_humidity;BME280_pressure;Samples;Min_cycle;Max_cycle;Signal;HPM_P1;HPM_P2
2023/09/15 00:01:32;;;;;;;25.67;16.58;;;15.50;99.90;;;;;;5099463;28;20483;-68
2023/09/15 00:04:02;;;;;;;27.60;16.95;;;15.50;99.90;;;;;;5111625;28;20068;-68
2023/09/15 00:06:28;;;;;;;25.17;17.10;;;15.50;99.90;;;;;;5099064;28;20020;-68
2023/09/15 00:08:53;;;;;;;23.63;16.58;;;15.50;99.90;;;;;;5103162;28;20487;-68
2023/09/15 00:11:19;;;;;;;24.10;17.23;;;15.40;99.90;;;;;;5107581;28;20046;-70
2023/09/15 00:13:45;;;;;;;23.60;17.10;;;15.40;99.90;;;;;;5095869;28;20020;-68
2023/09/15 00:16:12;;;;;;;28.83;19.02;;;15.40;99.90;;;;;;5109533;28;20036;-67
2023/09/15 00:18:37;;;;;;;30.20;20.10;;;15.40;99.90;;;;;;5101081;28;20102;-68
2023/09/15 00:21:05;;;;;;;30.23;20.35;;;15.40;99.90;;;;;;5102246;28;20107;-68
2023/09/15 00:23:31;;;;;;;26.63;18.67;;;15.30;99.90;;;;;;5108211;28;20035;-68
2023/09/15 00:25:59;;;;;;;27.33;21.10;;;15.30;99.90;;;;;;5096620;28;20036;-68
2023/09/15 00:28:25;;;;;;;24.80;19.25;;;15.30;99.90;;;;;;5106174;28;20109;-68
2023/09/15 00:30:50;;;;;;;25.77;19.38;;;15.30;99.90;;;;;;5112644;28;20055;-68
2023/09/15 00:33:16;;;;;;;27.13;19.55;;;15.30;99.90;;;;;;5100313;28;20093;-68
2023/09/15 00:35:42;;;;;;;26.98;20.30;;;15.30;99.90;;;;;;5109954;28;20036;-68
2023/09/15 00:38:08;;;;;;;27.13;20.27;;;15.20;99.90;;;;;;5099715;28;20466;-69
2023/09/15 00:40:33;;;;;;;27.15;20.23;;;15.20;99.90;;;;;;5106409;28;20078;-69
2023/09/15 00:42:59;;;;;;;27.23;20.23;;;15.20;99.90;;;;;;5103966;28;20034;-67
2023/09/15 00:45:25;;;;;;;27.83;21.80;;;15.20;99.90;;;;;;5097689;28;20022;-67
2023/09/15 00:48:00;;;;;;;28.30;21.67;;;15.20;99.90;;;;;;5109771;28;20054;-69
2023/09/15 00:50:29;;;;;;;30.45;22.05;;;15.10;99.90;;;;;;5099638;28;20217;-69
2023/09/15 00:53:04;;;;;;;28.85;22.17;;;15.10;99.90;;;;;;5102895;28;20103;-69
2023/09/15 00:55:35;;;;;;;29.75;22.70;;;15.10;99.90;;;;;;5107412;28;20055;-68
2023/09/15 00:58:03;;;;;;;29.50;23.35;;;15.10;99.90;;;;;;5112277;28;20478;-68
2023/09/15 01:00:30;;;;;;;30.77;23.27;;;15.10;99.90;;;;;;5113279;28;20520;-69
2023/09/15 01:02:56;;;;;;;28.85;21.15;;;15.10;99.90;;;;;;5103341;28;20028;-67
2023/09/15 01:05:23;;;;;;;30.05;23.17;;;15.00;99.90;;;;;;5106389;28;20031;-68
2023/09/15 01:07:53;;;;;;;26.77;22.85;;;15.00;99.90;;;;;;5096230;28;20078;-69
2023/09/15 01:10:20;;;;;;;31.55;23.35;;;15.00;99.90;;;;;;5107636;28;20024;-68
2023/09/15 01:12:51;;;;;;;30.50;23.25;;;15.00;99.90;;;;;;5105081;28;20051;-69
2023/09/15 01:15:17;;;;;;;29.70;22.83;;;15.00;99.90;;;;;;5103755;28;20032;-68
2023/09/15 01:17:55;;;;;;;27.42;22.42;;;15.00;99.90;;;;;;5113197;28;20110;-68
2023/09/15 01:20:39;;;;;;;31.02;23.27;;;15.00;99.90;;;;;;5102496;28;20103;-68
2023/09/15 01:23:26;;;;;;;30.48;24.05;;;14.90;99.90;;;;;;5105018;28;20391;-68
2023/09/15 01:26:00;;;;;;;29.90;24.02;;;15.00;99.90;;;;;;5112793;28;20478;-69
2023/09/15 01:29:00;;;;;;;29.13;24.35;;;14.90;99.90;;;;;;5102558;28;20042;-68
2023/09/15 01:31:26;;;;;;;31.90;24.55;;;14.90;99.90;;;;;;5111525;28;20024;-67
2023/09/15 01:33:52;;;;;;;30.27;24.55;;;14.90;99.90;;;;;;5099497;28;20031;-68
2023/09/15 01:36:18;;;;;;;31.27;25.05;;;14.90;99.90;;;;;;5111750;28;20077;-67
2023/09/15 01:38:43;;;;;;;29.90;25.20;;;14.90;99.90;;;;;;5103102;28;20043;-67
2023/09/15 01:41:09;;;;;;;32.10;24.55;;;14.80;99.90;;;;;;5102899;28;20107;-67
2023/09/15 01:43:34;;;;;;;31.70;25.80;;;14.90;99.90;;;;;;5112046;28;20051;-67
2023/09/15 01:46:00;;;;;;;29.70;24.98;;;14.90;99.90;;;;;;5099348;28;20028;-67
2023/09/15 01:48:27;;;;;;;32.13;26.02;;;14.80;99.90;;;;;;5110112;28;20031;-69
2023/09/15 01:50:53;;;;;;;32.75;26.00;;;14.80;99.90;;;;;;5105836;28;20363;-66
2023/09/15 01:53:19;;;;;;;31.30;26.60;;;14.80;99.90;;;;;;5102738;27;20047;-68
2023/09/15 01:55:46;;;;;;;32.15;26.35;;;14.80;99.90;;;;;;5112662;28;20386;-68
2023/09/15 01:58:12;;;;;;;32.67;25.75;;;14.80;99.90;;;;;;5099889;28;20028;-68
2023/09/15 02:00:38;;;;;;;31.08;24.92;;;14.80;99.90;;;;;;5108211;28;20047;-67
2023/09/15 02:03:04;;;;;;;32.47;26.60;;;14.80;99.90;;;;;;5107811;28;20085;-68
2023/09/15 02:05:30;;;;;;;29.35;25.10;;;14.70;99.90;;;;;;5101230;28;20052;-68
2023/09/15 02:07:56;;;;;;;30.85;26.33;;;14.70;99.90;;;;;;5113730;28;20432;-67
2023/09/15 02:10:22;;;;;;;30.92;25.42;;;14.70;99.90;;;;;;5110179;28;20384;-67
2023/09/15 02:12:48;;;;;;;32.78;27.17;;;14.60;99.90;;;;;;5104990;28;20053;-68
2023/09/15 02:15:14;;;;;;;31.90;25.58;;;14.60;99.90;;;;;;5114243;28;20035;-68
2023/09/15 02:17:40;;;;;;;33.08;26.08;;;14.60;99.90;;;;;;5099150;28;20027;-68
2023/09/15 02:20:12;;;;;;;35.53;27.58;;;14.60;99.90;;;;;;5112020;28;20016;-68
2023/09/15 02:22:41;;;;;;;;;;;14.50;99.90;;;;;;5095801;28;20032;-66
2023/09/15 02:25:07;;;;;;;33.55;26.15;;;14.60;99.90;;;;;;5107364;28;20351;-68
2023/09/15 02:27:32;;;;;;;31.63;26.83;;;14.50;99.90;;;;;;5100576;28;20085;-68
2023/09/15 02:29:58;;;;;;;30.10;26.35;;;14.50;99.90;;;;;;5104315;28;20035;-68
2023/09/15 02:32:23;;;;;;;31.08;26.23;;;14.50;99.90;;;;;;5108632;28;20047;-68
2023/09/15 02:34:49;;;;;;;34.70;27.25;;;14.50;99.90;;;;;;5104402;28;20044;-67
2023/09/15 02:37:15;;;;;;;31.25;27.05;;;14.50;99.90;;;;;;5102621;28;20109;-67
2023/09/15 02:39:40;;;;;;;32.10;27.17;;;14.40;99.90;;;;;;5111871;28;20063;-68
2023/09/15 02:42:06;;;;;;;33.97;28.40;;;14.50;99.90;;;;;;5098255;28;20034;-68
2023/09/15 02:44:32;;;;;;;32.03;27.10;;;14.50;99.90;;;;;;5108317;28;20035;-68
2023/09/15 02:46:58;;;;;;;32.80;27.67;;;14.40;99.90;;;;;;5105699;28;20016;-67
2023/09/15 02:49:23;;;;;;;34.55;28.15;;;14.40;99.90;;;;;;5100577;28;20031;-66
2023/09/15 02:51:49;;;;;;;33.22;26.80;;;14.40;99.90;;;;;;5111345;28;20032;-67
2023/09/15 02:54:14;;;;;;;32.10;27.50;;;14.40;99.90;;;;;;5099382;28;20106;-67
2023/09/15 02:56:40;;;;;;;33.72;28.42;;;14.40;99.90;;;;;;5106901;28;20042;-66
2023/09/15 02:59:05;;;;;;;32.75;27.23;;;14.40;99.90;;;;;;5106278;28;20172;-67
2023/09/15 03:01:31;;;;;;;33.25;28.95;;;14.40;99.90;;;;;;5099822;28;20129;-68
2023/09/15 03:03:56;;;;;;;33.95;27.80;;;14.30;99.90;;;;;;5111059;28;20024;-66
2023/09/15 03:06:22;;;;;;;32.58;27.35;;;14.30;99.90;;;;;;5100352;28;20132;-68
2023/09/15 03:08:48;;;;;;;34.20;28.13;;;14.30;99.90;;;;;;5105652;28;20117;-68
2023/09/15 03:11:17;;;;;;;36.15;29.48;;;14.30;99.90;;;;;;5107421;28;20391;-67
2023/09/15 03:13:42;;;;;;;36.13;29.67;;;14.30;99.90;;;;;;5098254;28;20024;-67
2023/09/15 03:16:11;;;;;;;35.83;30.33;;;14.30;99.90;;;;;;5111021;28;20048;-67
2023/09/15 03:18:37;;;;;;;37.25;31.40;;;14.20;99.90;;;;;;5102083;28;20073;-67
2023/09/15 03:21:04;;;;;;;36.80;31.38;;;14.20;99.90;;;;;;5103160;28;20020;-68
2023/09/15 03:23:30;;;;;;;39.28;31.08;;;14.20;99.90;;;;;;5109284;28;20499;-68
2023/09/15 03:26:03;;;;;;;38.70;32.58;;;14.20;99.90;;;;;;5096328;28;20111;-67
2023/09/15 03:28:32;;;;;;;38.65;32.20;;;14.20;99.90;;;;;;5107856;28;20024;-68
2023/09/15 03:30:57;;;;;;;40.30;32.72;;;14.20;99.90;;;;;;5104904;28;20028;-68
2023/09/15 03:33:23;;;;;;;38.92;32.97;;;14.20;99.90;;;;;;5099533;28;20028;-67
2023/09/15 03:35:49;;;;;;;40.72;31.98;;;14.20;99.90;;;;;;5110433;28;20035;-67
2023/09/15 03:38:14;;;;;;;37.15;31.65;;;14.10;99.90;;;;;;5098053;28;20115;-66
2023/09/15 03:40:40;;;;;;;38.47;31.30;;;14.10;99.90;;;;;;5109341;28;20157;-67
2023/09/15 03:43:06;;;;;;;39.53;32.88;;;14.10;99.90;;;;;;5094030;28;20077;-67
2023/09/15 03:45:33;;;;;;;38.03;31.67;;;14.10;99.90;;;;;;5093876;28;20024;-67
2023/09/15 03:47:59;;;;;;;42.78;33.47;;;14.10;99.90;;;;;;5093958;28;20099;-66
2023/09/15 03:50:24;;;;;;;42.33;32.95;;;14.10;99.90;;;;;;5093824;28;20107;-67
2023/09/15 03:52:50;;;;;;;36.88;30.40;;;14.10;99.90;;;;;;5093896;28;20360;-68
2023/09/15 03:55:17;;;;;;;39.58;32.55;;;14.00;99.90;;;;;;5093562;28;20102;-67
2023/09/15 03:57:42;;;;;;;40.30;33.33;;;14.00;99.90;;;;;;5093779;28;20028;-66
2023/09/15 04:00:15;;;;;;;39.25;33.65;;;14.00;99.90;;;;;;5093758;28;20097;-68
2023/09/15 04:02:41;;;;;;;40.08;33.53;;;14.00;99.90;;;;;;5107012;28;20032;-67
2023/09/15 04:05:07;;;;;;;38.42;32.67;;;14.00;99.90;;;;;;5114126;28;20364;-67
2023/09/15 04:07:32;;;;;;;40.30;32.67;;;14.00;99.90;;;;;;5114115;28;20027;-66
2023/09/15 04:09:58;;;;;;;39.05;32.40;;;14.00;99.90;;;;;;5114136;28;20587;-66
2023/09/15 04:12:24;;;;;;;38.47;33.72;;;14.00;99.90;;;;;;5114179;28;20387;-66
2023/09/15 04:14:49;;;;;;;39.95;33.60;;;13.90;99.90;;;;;;5111973;28;20114;-68
2023/09/15 04:17:15;;;;;;;40.35;32.45;;;13.90;99.90;;;;;;5114185;28;20027;-67
2023/09/15 04:19:40;;;;;;;40.95;34.47;;;13.90;99.90;;;;;;5114060;28;20065;-67
2023/09/15 04:22:06;;;;;;;40.05;33.70;;;13.90;99.90;;;;;;5114185;28;20034;-66
2023/09/15 04:24:31;;;;;;;39.13;33.55;;;13.90;99.90;;;;;;5114098;28;20032;-67
2023/09/15 04:26:57;;;;;;;46.25;35.03;;;13.80;99.90;;;;;;5113789;28;20063;-68
2023/09/15 04:29:22;;;;;;;47.30;35.90;;;13.80;99.90;;;;;;5113769;28;20028;-67
2023/09/15 04:31:48;;;;;;;45.80;35.90;;;13.80;99.90;;;;;;5113880;28;20141;-66
2023/09/15 04:34:14;;;;;;;41.15;35.05;;;13.80;99.90;;;;;;5113876;28;20028;-66
2023/09/15 04:36:40;;;;;;;42.35;34.72;;;13.80;99.90;;;;;;5113955;28;20023;-67
2023/09/15 04:39:07;;;;;;;44.92;35.47;;;13.70;99.90;;;;;;5113727;28;20126;-67
2023/09/15 04:41:32;;;;;;;39.65;33.25;;;13.80;99.90;;;;;;5113863;28;20444;-67
2023/09/15 04:43:58;;;;;;;40.38;33.25;;;13.70;99.90;;;;;;5113579;28;20035;-66
2023/09/15 04:46:24;;;;;;;42.00;34.20;;;13.80;99.90;;;;;;5113735;28;20407;-66
2023/09/15 04:48:50;;;;;;;43.92;34.92;;;13.80;99.90;;;;;;5113703;28;20020;-67
2023/09/15 04:51:16;;;;;;;41.88;33.22;;;13.70;99.90;;;;;;5113902;28;20035;-68
2023/09/15 04:53:41;;;;;;;41.88;35.50;;;13.70;99.90;;;;;;5113760;28;20024;-66
2023/09/15 04:56:07;;;;;;;42.20;33.25;;;13.70;99.90;;;;;;5113491;28;20054;-66
2023/09/15 04:58:33;;;;;;;42.22;34.22;;;13.70;99.90;;;;;;5113412;28;20016;-68
2023/09/15 05:01:03;;;;;;;44.22;34.17;;;13.70;99.90;;;;;;5113363;28;20084;-68
2023/09/15 05:03:29;;;;;;;42.38;32.83;;;13.70;99.90;;;;;;5113739;28;20024;-67
2023/09/15 05:05:55;;;;;;;41.83;34.95;;;13.70;99.90;;;;;;5113596;28;20034;-66
2023/09/15 05:08:21;;;;;;;40.45;31.80;;;13.70;99.90;;;;;;5113801;28;20027;-66
2023/09/15 05:10:47;;;;;;;40.38;33.13;;;13.70;99.90;;;;;;5113585;28;20115;-66
2023/09/15 05:13:14;;;;;;;41.75;33.42;;;13.70;99.90;;;;;;5112993;28;20467;-66
2023/09/15 05:15:39;;;;;;;42.03;34.80;;;13.70;99.90;;;;;;5113250;28;20036;-66
2023/09/15 05:18:05;;;;;;;40.92;32.75;;;13.70;99.90;;;;;;5113573;28;20433;-67
2023/09/15 05:20:30;;;;;;;37.45;32.17;;;13.70;99.90;;;;;;5112962;28;20057;-65
2023/09/15 05:22:56;;;;;;;41.60;32.45;;;13.70;99.90;;;;;;5113182;28;20112;-67
2023/09/15 05:25:22;;;;;;;37.67;29.65;;;13.70;99.90;;;;;;5113014;28;20023;-66
2023/09/15 05:27:47;;;;;;;44.10;32.45;;;13.70;99.90;;;;;;5110843;28;20107;-66
2023/09/15 05:30:15;;;;;;;39.60;31.70;;;13.70;99.90;;;;;;5096394;28;20732;-64
2023/09/15 05:32:40;;;;;;;40.42;31.23;;;13.70;99.90;;;;;;5112324;28;20026;-67
2023/09/15 05:35:10;;;;;;;38.50;30.27;;;13.70;99.90;;;;;;5111945;28;20135;-66
2023/09/15 05:37:36;;;;;;;38.55;31.75;;;13.70;99.90;;;;;;5111946;28;20410;-67
2023/09/15 05:40:01;;;;;;;39.80;32.30;;;13.70;99.90;;;;;;5112756;28;20048;-67
2023/09/15 05:42:27;;;;;;;38.00;29.60;;;13.70;99.90;;;;;;5112814;28;20077;-65
2023/09/15 05:44:54;;;;;;;40.22;29.75;;;13.80;99.90;;;;;;5112700;28;20027;-66
2023/09/15 05:47:21;;;;;;;39.17;31.00;;;13.80;99.90;;;;;;5112799;28;20103;-65
2023/09/15 05:49:47;;;;;;;38.20;29.65;;;13.90;99.90;;;;;;5113298;28;20027;-66
2023/09/15 05:52:13;;;;;;;36.78;28.38;;;13.90;99.90;;;;;;5107492;28;20020;-66
2023/09/15 05:54:38;;;;;;;37.15;28.10;;;13.90;99.90;;;;;;5091986;28;20472;-65
2023/09/15 05:57:07;;;;;;;36.53;28.73;;;14.00;99.90;;;;;;5092705;28;20024;-66
2023/09/15 05:59:33;;;;;;;34.22;27.58;;;14.00;99.90;;;;;;5114185;28;20036;-65
2023/09/15 06:01:58;;;;;;;38.25;27.23;;;14.10;99.90;;;;;;5116403;28;20042;-66
2023/09/15 06:04:24;;;;;;;33.03;26.42;;;14.10;99.90;;;;;;5116310;28;20025;-66
2023/09/15 06:06:49;;;;;;;33.90;26.92;;;14.20;99.90;;;;;;5116114;28;20094;-66
2023/09/15 06:09:15;;;;;;;33.80;25.90;;;14.20;99.90;;;;;;5116420;28;20028;-66
2023/09/15 06:11:41;;;;;;;32.92;25.90;;;14.30;99.90;;;;;;5115583;28;20462;-65
2023/09/15 06:14:06;;;;;;;29.95;24.30;;;14.40;99.90;;;;;;5114294;28;20356;-65
2023/09/15 06:16:36;;;;;;;32.42;25.35;;;14.40;99.90;;;;;;5116439;28;20039;-67
2023/09/15 06:19:02;;;;;;;32.30;25.10;;;14.50;99.90;;;;;;5116189;28;20456;-64
2023/09/15 06:21:28;;;;;;;32.67;24.35;;;14.60;99.90;;;;;;5116158;28;20069;-65
2023/09/15 06:23:53;;;;;;;30.83;23.67;;;14.70;99.90;;;;;;5115829;28;20024;-66
2023/09/15 06:26:19;;;;;;;29.42;23.55;;;14.70;99.90;;;;;;5115600;28;20074;-66
2023/09/15 06:28:45;;;;;;;29.02;21.67;;;14.80;99.90;;;;;;5116074;28;20023;-66
2023/09/15 06:31:10;;;;;;;28.92;22.85;;;14.90;99.90;;;;;;5114419;28;20451;-66
2023/09/15 06:33:36;;;;;;;27.63;21.50;;;14.90;99.90;;;;;;5116184;28;20035;-66
2023/09/15 06:36:02;;;;;;;28.05;22.08;;;15.00;99.90;;;;;;5114275;28;20042;-66
2023/09/15 06:38:28;;;;;;;27.23;21.60;;;15.00;99.90;;;;;;5115042;28;20120;-65
2023/09/15 06:40:54;;;;;;;29.92;22.20;;;15.10;99.90;;;;;;5113307;28;20490;-65
2023/09/15 06:43:19;;;;;;;26.27;20.88;;;15.20;99.90;;;;;;5110886;28;20146;-66
2023/09/15 06:45:45;;;;;;;28.77;21.90;;;15.30;99.90;;;;;;5101665;28;20244;-66
2023/09/15 06:48:11;;;;;;;29.58;20.27;;;15.40;99.90;;;;;;5110331;28;20036;-65
2023/09/15 06:50:36;;;;;;;27.27;21.13;;;15.50;99.90;;;;;;5108447;28;20120;-66
2023/09/15 06:53:02;;;;;;;29.92;20.98;;;15.60;99.90;;;;;;5114626;28;20061;-66
2023/09/15 06:55:28;;;;;;;27.63;20.77;;;15.60;99.90;;;;;;5115126;28;20046;-66
2023/09/15 06:57:53;;;;;;;30.92;19.75;;;15.70;99.90;;;;;;5104998;28;20509;-67
2023/09/15 07:00:19;;;;;;;27.20;19.10;;;15.80;99.90;;;;;;5102907;28;20471;-66
2023/09/15 07:02:45;;;;;;;27.25;19.75;;;15.90;99.90;;;;;;5114505;28;20032;-66
2023/09/15 07:05:11;;;;;;;26.25;19.45;;;16.00;99.90;;;;;;5110705;28;20035;-66
2023/09/15 07:07:37;;;;;;;27.25;18.80;;;16.10;99.90;;;;;;5107370;28;20027;-65
2023/09/15 07:10:06;;;;;;;25.67;18.08;;;16.20;99.90;;;;;;5099870;28;20036;-66
2023/09/15 07:12:32;;;;;;;25.10;18.05;;;16.30;99.90;;;;;;5104216;28;20076;-66
2023/09/15 07:15:00;;;;;;;24.80;17.45;;;16.40;99.90;;;;;;5105590;28;20036;-66
2023/09/15 07:17:29;;;;;;;23.80;16.13;;;16.60;99.90;;;;;;5100495;28;20055;-67
2023/09/15 07:19:54;;;;;;;27.58;16.95;;;16.70;99.90;;;;;;5114168;28;20027;-66
2023/09/15 07:22:24;;;;;;;24.17;16.70;;;16.80;99.90;;;;;;5101649;28;20390;-66
2023/09/15 07:24:50;;;;;;;21.85;15.75;;;17.00;99.90;;;;;;5112502;28;20110;-65
2023/09/15 07:27:15;;;;;;;22.10;15.82;;;17.20;99.90;;;;;;5110106;28;20091;-68
2023/09/15 07:29:41;;;;;;;22.38;15.20;;;17.60;99.90;;;;;;5101281;28;20111;-66
2023/09/15 07:32:06;;;;;;;22.40;14.88;;;18.00;99.90;;;;;;5098334;28;20063;-66
2023/09/15 07:34:32;;;;;;;19.95;14.35;;;18.60;99.90;;;;;;5111167;28;20069;-67
2023/09/15 07:36:59;;;;;;;21.20;14.10;;;19.50;99.90;;;;;;5108660;28;20426;-65
2023/09/15 07:39:25;;;;;;;21.65;13.50;;;20.30;99.90;;;;;;5103993;28;20039;-66
2023/09/15 07:41:50;;;;;;;21.20;11.88;;;21.30;99.90;;;;;;5106629;28;20043;-67
2023/09/15 07:44:17;;;;;;;21.30;10.60;;;22.30;99.90;;;;;;5105304;28;20024;-66
2023/09/15 07:46:44;;;;;;;18.75;10.88;;;23.30;99.90;;;;;;5103430;28;20019;-66
2023/09/15 07:49:09;;;;;;;18.45;10.18;;;24.00;99.90;;;;;;5103771;28;20042;-65
2023/09/15 07:51:35;;;;;;;17.70;9.20;;;24.90;99.90;;;;;;5103606;28;20304;-66
2023/09/15 07:54:01;;;;;;;16.45;9.93;;;25.80;98.90;;;;;;5108636;28;20016;-66
2023/09/15 07:56:27;;;;;;;17.95;8.68;;;26.70;97.00;;;;;;5103955;28;20486;-67
2023/09/15 07:58:52;;;;;;;17.45;9.30;;;27.50;96.00;;;;;;5108584;28;20027;-66
2023/09/15 08:01:18;;;;;;;16.95;8.70;;;28.40;94.90;;;;;;5103946;28;20356;-67
2023/09/15 08:03:44;;;;;;;17.13;8.85;;;29.20;93.10;;;;;;5111214;28;20378;-67
2023/09/15 08:06:11;;;;;;;13.95;8.27;;;29.60;92.50;;;;;;5110623;28;20111;-66
2023/09/15 08:08:36;;;;;;;14.73;9.02;;;30.10;91.50;;;;;;5110042;28;20015;-66
2023/09/15 08:11:02;;;;;;;15.60;8.52;;;30.50;90.80;;;;;;5105730;28;20084;-66
2023/09/15 08:13:28;;;;;;;13.52;8.52;;;30.70;90.10;;;;;;5108783;28;20027;-65
2023/09/15 08:15:54;;;;;;;14.93;8.15;;;31.20;90.00;;;;;;5108889;28;20051;-67
2023/09/15 08:18:20;;;;;;;12.07;7.88;;;31.80;89.60;;;;;;5098068;28;20028;-67
2023/09/15 08:20:46;;;;;;;16.92;8.82;;;32.40;88.10;;;;;;5105966;28;20031;-66
2023/09/15 08:23:12;;;;;;;15.02;8.00;;;33.00;86.70;;;;;;5105335;28;20462;-66
2023/09/15 08:25:46;;;;;;;13.85;7.28;;;33.50;85.60;;;;;;5107246;28;20055;-66
2023/09/15 08:28:13;;;;;;;13.85;6.82;;;34.00;83.90;;;;;;5112698;28;20081;-67
2023/09/15 08:30:39;;;;;;;9.27;6.18;;;34.40;82.40;;;;;;5113163;28;20031;-66
2023/09/15 08:33:05;;;;;;;9.95;6.80;;;34.50;81.50;;;;;;5111288;28;20031;-66
2023/09/15 08:35:32;;;;;;;9.57;5.43;;;34.60;80.60;;;;;;5100156;28;20040;-66
2023/09/15 08:37:59;;;;;;;10.20;5.95;;;34.50;79.00;;;;;;5100773;28;20088;-67
2023/09/15 08:40:37;;;;;;;10.07;5.70;;;34.00;79.10;;;;;;5112500;28;20038;-67
2023/09/15 08:43:04;;;;;;;10.77;6.07;;;33.80;80.00;;;;;;5097996;28;20035;-67
2023/09/15 08:45:30;;;;;;;11.05;6.30;;;33.70;79.70;;;;;;5092502;28;20514;-65
2023/09/15 08:47:59;;;;;;;12.27;6.47;;;34.00;79.00;;;;;;5097671;28;20035;-67
2023/09/15 08:50:25;;;;;;;12.73;6.20;;;34.10;79.00;;;;;;5112462;28;20037;-66
2023/09/15 08:52:52;;;;;;;12.35;6.50;;;34.30;78.80;;;;;;5112002;28;20031;-65
2023/09/15 08:55:18;;;;;;;13.05;7.03;;;34.30;79.00;;;;;;5112932;28;20475;-66
2023/09/15 08:57:44;;;;;;;13.05;6.60;;;34.50;78.80;;;;;;5113215;28;20027;-66
2023/09/15 09:00:12;;;;;;;12.02;6.60;;;34.60;78.70;;;;;;5112073;28;20027;-67
2023/09/15 09:02:39;;;;;;;12.10;7.15;;;34.80;78.50;;;;;;5112272;28;20063;-67
2023/09/15 09:05:05;;;;;;;14.20;7.13;;;35.10;77.40;;;;;;5112382;28;20050;-67
2023/09/15 09:07:31;;;;;;;12.60;7.28;;;35.00;77.70;;;;;;5113252;28;20109;-67
2023/09/15 09:09:57;;;;;;;14.07;7.63;;;35.00;77.80;;;;;;5112954;28;20034;-67
2023/09/15 09:12:23;;;;;;;14.20;7.63;;;35.10;77.30;;;;;;5096299;28;20048;-68
2023/09/15 09:14:54;;;;;;;13.02;7.68;;;35.30;77.60;;;;;;5105546;28;20533;-66
2023/09/15 09:17:22;;;;;;;13.70;7.82;;;35.70;76.10;;;;;;5112436;28;20456;-67
2023/09/15 09:19:48;;;;;;;12.57;7.53;;;35.60;75.70;;;;;;5112901;28;20590;-66
2023/09/15 09:22:19;;;;;;;10.73;7.40;;;35.40;75.90;;;;;;5112215;28;20110;-67
2023/09/15 09:24:55;;;;;;;12.23;7.55;;;35.30;75.70;;;;;;5113233;28;20047;-67
2023/09/15 09:27:21;;;;;;;11.80;7.75;;;35.20;75.50;;;;;;5112310;28;20027;-66
2023/09/15 09:29:46;;;;;;;11.95;7.38;;;35.40;76.00;;;;;;5112427;28;20383;-67
2023/09/15 09:32:15;;;;;;;14.82;8.00;;;35.80;75.00;;;;;;5113226;28;20028;-66
2023/09/15 09:34:41;;;;;;;13.10;8.70;;;36.10;73.90;;;;;;5116302;28;20031;-67
2023/09/15 09:37:07;;;;;;;11.90;7.75;;;36.00;74.60;;;;;;5115821;28;20058;-67
2023/09/15 09:39:34;;;;;;;13.90;7.75;;;36.40;74.40;;;;;;5115901;28;20437;-67
2023/09/15 09:41:59;;;;;;;12.05;7.75;;;36.70;73.10;;;;;;5115884;28;20064;-67
2023/09/15 09:44:25;;;;;;;11.65;7.53;;;36.60;72.80;;;;;;5115872;28;20437;-67
2023/09/15 09:46:53;;;;;;;9.82;6.97;;;36.60;72.60;;;;;;5116604;28;20031;-68
2023/09/15 09:49:19;;;;;;;11.25;6.70;;;36.90;71.80;;;;;;5115428;28;20027;-66
2023/09/15 09:51:45;;;;;;;12.52;7.00;;;37.20;70.50;;;;;;5116554;28;20023;-67
2023/09/15 09:54:14;;;;;;;12.77;7.22;;;37.00;71.20;;;;;;5116237;28;20059;-67
2023/09/15 09:56:46;;;;;;;11.45;5.60;;;36.60;70.50;;;;;;5115971;28;20040;-66
2023/09/15 09:59:12;;;;;;;8.68;5.07;;;36.40;71.10;;;;;;5116601;28;20032;-67
2023/09/15 10:01:38;;;;;;;9.02;5.30;;;36.00;70.00;;;;;;5107387;28;20046;-68
2023/09/15 10:04:05;;;;;;;9.48;6.03;;;35.00;71.00;;;;;;5102717;28;20043;-68
2023/09/15 10:06:35;;;;;;;12.68;6.40;;;34.40;71.40;;;;;;5115821;28;20469;-67
2023/09/15 10:09:05;;;;;;;10.93;6.18;;;34.00;72.50;;;;;;5115565;28;20027;-66
2023/09/15 10:11:35;;;;;;;8.07;5.45;;;34.00;72.90;;;;;;5115819;28;20024;-67
2023/09/15 10:14:05;;;;;;;10.13;5.25;;;34.10;72.70;;;;;;5115091;28;20061;-67
2023/09/15 10:16:35;;;;;;;7.57;5.00;;;34.30;72.10;;;;;;5114501;28;20414;-67
2023/09/15 10:19:05;;;;;;;10.45;5.25;;;34.30;71.40;;;;;;5115883;28;20024;-67
2023/09/15 10:21:34;;;;;;;8.05;4.93;;;34.30;70.80;;;;;;5115897;28;20498;-68
2023/09/15 10:24:04;;;;;;;9.63;4.40;;;34.60;71.50;;;;;;5116003;28;20050;-68
2023/09/15 10:26:30;;;;;;;10.25;6.25;;;35.20;71.10;;;;;;5109848;28;20121;-67
2023/09/15 10:28:56;;;;;;;10.20;5.78;;;35.70;70.20;;;;;;5095870;28;20024;-67
2023/09/15 10:31:23;;;;;;;10.23;5.35;;;36.20;70.40;;;;;;5095608;28;20031;-66
2023/09/15 10:33:49;;;;;;;9.93;5.65;;;36.70;69.70;;;;;;5095229;28;20035;-67
2023/09/15 10:36:15;;;;;;;10.45;5.07;;;36.90;68.90;;;;;;5094814;28;20036;-67
2023/09/15 10:38:41;;;;;;;9.32;5.13;;;37.10;69.50;;;;;;5094979;28;20123;-68
2023/09/15 10:41:10;;;;;;;9.80;5.55;;;37.40;68.90;;;;;;5094601;28;20020;-68
2023/09/15 10:43:50;;;;;;;9.02;5.30;;;37.60;68.80;;;;;;5093535;28;20418;-68
2023/09/15 10:46:16;;;;;;;10.60;4.75;;;37.60;68.00;;;;;;5095644;28;20375;-68
2023/09/15 10:48:50;;;;;;;11.65;5.07;;;37.60;68.20;;;;;;5094796;28;20107;-68
2023/09/15 10:51:18;;;;;;;9.25;5.38;;;37.90;68.50;;;;;;5093985;28;20024;-68
2023/09/15 10:53:56;;;;;;;10.48;4.93;;;38.30;67.80;;;;;;5094117;28;20115;-68
2023/09/15 10:56:21;;;;;;;9.52;5.00;;;38.30;67.00;;;;;;5094348;28;20035;-68
2023/09/15 10:58:48;;;;;;;10.18;5.47;;;38.20;66.90;;;;;;5094620;28;20481;-68
2023/09/15 11:01:18;;;;;;;8.15;4.80;;;38.00;67.00;;;;;;5094376;28;20049;-68
2023/09/15 11:03:43;;;;;;;7.93;5.15;;;38.00;67.00;;;;;;5094387;28;20078;-68
2023/09/15 11:06:11;;;;;;;9.55;4.40;;;38.20;66.70;;;;;;5106593;28;20019;-67
2023/09/15 11:08:38;;;;;;;7.63;4.18;;;38.40;66.00;;;;;;5114601;28;20078;-67
2023/09/15 11:11:07;;;;;;;9.73;4.82;;;38.50;66.20;;;;;;5099876;28;20073;-69
2023/09/15 11:13:33;;;;;;;8.25;4.50;;;38.60;66.30;;;;;;5106407;28;20127;-68
2023/09/15 11:15:59;;;;;;;8.63;4.13;;;38.70;66.10;;;;;;5108269;28;20032;-68
2023/09/15 11:18:26;;;;;;;8.00;4.65;;;38.70;65.80;;;;;;5109727;28;20024;-68
2023/09/15 11:20:54;;;;;;;7.78;3.92;;;38.80;65.60;;;;;;5114026;28;20024;-68
2023/09/15 11:23:24;;;;;;;8.77;4.20;;;39.00;64.70;;;;;;5098072;28;20049;-68
2023/09/15 11:25:59;;;;;;;9.07;4.10;;;39.20;65.30;;;;;;5101586;28;20059;-68
2023/09/15 11:28:24;;;;;;;9.55;4.53;;;39.30;64.60;;;;;;5105114;28;20036;-69
2023/09/15 11:30:52;;;;;;;6.85;3.88;;;39.40;64.30;;;;;;5114142;28;20028;-69
2023/09/15 11:33:19;;;;;;;7.28;3.92;;;39.20;64.70;;;;;;5104221;28;20113;-69
2023/09/15 11:35:47;;;;;;;7.88;4.25;;;39.10;64.90;;;;;;5094218;28;20040;-68
2023/09/15 11:38:13;;;;;;;7.90;4.28;;;39.00;64.60;;;;;;5094491;28;20047;-69
2023/09/15 11:41:08;;;;;;;9.20;4.68;;;39.10;64.30;;;;;;5102871;28;20032;-69
2023/09/15 11:43:44;;;;;;;8.02;4.90;;;39.20;63.80;;;;;;5095675;28;20119;-69
2023/09/15 11:46:11;;;;;;;7.65;4.68;;;38.90;64.00;;;;;;5094228;28;20024;-69
2023/09/15 11:48:38;;;;;;;11.13;5.68;;;38.70;64.60;;;;;;5097504;28;20378;-68
2023/09/15 11:51:10;;;;;;;9.00;4.32;;;38.30;64.20;;;;;;5099233;28;20020;-68
2023/09/15 11:53:39;;;;;;;8.23;4.70;;;37.80;65.50;;;;;;5104248;28;20130;-69
2023/09/15 11:56:05;;;;;;;8.48;4.47;;;37.70;65.60;;;;;;5100130;28;20071;-68
2023/09/15 11:58:32;;;;;;;10.20;6.32;;;37.60;65.70;;;;;;5097632;28;20047;-68
2023/09/15 12:00:58;;;;;;;9.25;5.47;;;37.60;65.90;;;;;;5106545;28;20409;-68
2023/09/15 12:03:24;;;;;;;10.60;5.78;;;37.50;65.80;;;;;;5091440;28;20051;-69
2023/09/15 12:05:50;;;;;;;10.48;6.00;;;37.10;66.20;;;;;;5106514;28;20118;-68
2023/09/15 12:08:16;;;;;;;10.45;5.63;;;37.20;66.30;;;;;;5101843;28;20108;-68
2023/09/15 12:10:42;;;;;;;8.32;4.53;;;37.10;66.30;;;;;;5100452;28;20031;-68
2023/09/15 12:13:08;;;;;;;7.75;4.68;;;37.20;66.10;;;;;;5098967;28;20081;-69
2023/09/15 12:15:34;;;;;;;8.32;4.68;;;37.40;66.30;;;;;;5095589;28;20395;-69
2023/09/15 12:18:03;;;;;;;8.35;5.00;;;37.50;65.90;;;;;;5097498;28;20027;-69
2023/09/15 12:20:28;;;;;;;9.70;5.38;;;37.40;66.30;;;;;;5102321;28;20042;-68
2023/09/15 12:22:54;;;;;;;10.48;5.28;;;37.50;66.10;;;;;;5093944;28;20110;-68
2023/09/15 12:25:20;;;;;;;8.60;4.65;;;37.60;65.30;;;;;;5091538;28;20027;-69
2023/09/15 12:27:46;;;;;;;9.77;5.20;;;37.90;65.40;;;;;;5090276;28;20056;-68
2023/09/15 12:30:13;;;;;;;9.32;6.10;;;37.90;66.00;;;;;;5100497;28;20408;-68
2023/09/15 12:32:39;;;;;;;11.10;4.78;;;37.90;65.60;;;;;;5111154;28;20028;-69